Pagrindinis puslapis
METAR-TAF:

METAR-TAF

Oro uostai :

Naftos platforma

Awg-1, Nyderlandai

platuma: 53-29-30N, ilguma: 5-56-30E, Aukštis: 33 m

Dabartinis oras

Ataskaita buvo paskelbta 14 minutes, ne 10:25 UTC
Vėjas 10 kt iš Pietų/Pietvakarių
Temperatūra 14°C
Drėgmė 82%
Slėgis 1029 hPa
Matomumas 10 km arba daugiau
Išsisklaidę debesys ne aukštis 1900 ft
Su prošvaistėmis ne aukštis 2300 ft
Apsiniaukę ne aukštis 2600 ft

METAR: EHMA 201025Z AUTO 20010KT 9999 SCT019 BKN023 OVC026 14/11 Q1029 W///H///

Laikas: 12:39 (10:39 UTC)


TAF: trūkstamas

Orai ataskaitas ir orų prognozės (METAR, TAF).

turimą stotys yra geltonos ir raudonos taškus žemėlapyje.

Perkelti pele per norėdami pamatyti stoties vardą.

Tada spustelėkite, norėdami matyti oro stebėjimo ir prognozės.

Norėdami pakeisti žemėlapį: spustelėkite ant žalios mygtukų su juodo kryžiaus žemyn,; žalią mygtuką su brūkšneliu, jei norite nutolinti; arba žalių rodyklių gretimoms žemėlapius.


METAR-TAF: